Solon, Iowa
Current Conditions -  °F | °C
As of 5:52 PM on Thursday 27 Nov 2014 (Local Time) from KCID Reporting Station
Clear Clear  
Wind Chill:   Ceiling: Unl
Heat Index:   Visibility: 10mi
Dew Point:   Wind: 3mph
Humidity: 88%   Direction: 220°SW
Pressure: 30.43"   Gusts: NA
Location:  41.81°N, 91.49°W
Report Text: KCID 272352Z 22003KT 10SM CLR M16/M17 A3043 RMK AO2 SLP323 T11561172 11089 21156 58002
Loading
Personal Weather Stations






























Interactive Weather Map New forecast layout! Learn more

10-Day Weather Forecast

Advertisements
Track Severe Weather on mobile